Rogerslacy, Texas
Current Conditions -  °F | °C
As of 3:15 PM on Monday 22 Dec 2014 (Local Time) from KT65 Reporting Station
Clear Clear  
Wind Chill: 79°   Ceiling: Unl
Heat Index: 80°   Visibility: 7mi
Dew Point: 64°   Wind: 0mph
Humidity: 61%   Direction: NA
Pressure: 29.65"   Gusts: NA
Location:  26.2692°N, 97.8326°W
Report Text: KT65 222115Z AUTO 00000KT 7SM CLR 26/18 A2965 RMK AO2 T02590178
Loading
Personal Weather Stations






























Interactive Weather Map New forecast layout! Learn more

10-Day Weather Forecast

Advertisements
Track Severe Weather on mobile